createdAt,value
2023-03-06T00:02:01.482Z,7.68
2023-03-06T00:04:27.891Z,7.85
2023-03-06T00:06:54.672Z,9.68
2023-03-06T00:09:21.001Z,8.65
2023-03-06T00:11:53.326Z,8.88
2023-03-06T00:14:19.751Z,8.45
2023-03-06T00:16:46.131Z,8.35
2023-03-06T00:19:12.521Z,11.38
2023-03-06T00:21:41.423Z,9.80
2023-03-06T00:24:07.987Z,9.80
2023-03-06T00:26:35.842Z,9.30
2023-03-06T00:29:02.457Z,8.82
2023-03-06T00:31:29.119Z,6.80
2023-03-06T00:33:55.588Z,8.80
2023-03-06T00:36:22.000Z,11.68
2023-03-06T00:38:48.374Z,10.90
2023-03-06T00:41:14.805Z,14.25
2023-03-06T00:43:41.315Z,9.55
2023-03-06T00:46:08.035Z,11.05
2023-03-06T00:48:34.932Z,11.95
2023-03-06T00:51:01.653Z,9.18
2023-03-06T00:53:28.161Z,9.98
2023-03-06T00:55:54.518Z,10.25
2023-03-06T00:58:20.930Z,7.72
2023-03-06T01:00:47.496Z,10.88
2023-03-06T01:03:13.876Z,9.20
2023-03-06T01:05:40.781Z,8.05
2023-03-06T01:08:08.711Z,10.95
2023-03-06T01:10:39.001Z,8.15
2023-03-06T01:13:05.722Z,8.82
2023-03-06T01:15:32.545Z,12.63
2023-03-06T01:17:59.022Z,11.55
2023-03-06T01:20:25.504Z,15.45
2023-03-06T01:22:51.915Z,11.57
2023-03-06T01:25:18.408Z,12.30
2023-03-06T01:27:44.802Z,11.23
2023-03-06T01:30:11.852Z,9.70
2023-03-06T01:32:38.438Z,10.82
2023-03-06T01:35:05.442Z,12.43
2023-03-06T01:37:32.345Z,9.10
2023-03-06T01:39:58.715Z,10.35
2023-03-06T01:42:25.274Z,10.23
2023-03-06T01:45:13.258Z,12.52
2023-03-06T01:47:39.749Z,11.27
2023-03-06T01:50:10.223Z,11.27
2023-03-06T01:52:43.606Z,10.88
2023-03-06T01:55:14.736Z,13.57
2023-03-06T01:57:45.131Z,14.05
2023-03-06T02:00:17.970Z,18.20
2023-03-06T02:02:52.762Z,14.23
2023-03-06T02:05:19.956Z,18.73
2023-03-06T02:07:47.369Z,14.00
2023-03-06T02:10:15.402Z,13.95
2023-03-06T02:12:43.680Z,14.02
2023-03-06T02:15:12.179Z,18.23
2023-03-06T02:17:39.272Z,17.77
2023-03-06T02:20:08.558Z,14.57
2023-03-06T02:22:45.856Z,15.02
2023-03-06T02:25:43.517Z,11.95
2023-03-06T02:28:20.599Z,14.13
2023-03-06T02:33:18.183Z,13.77
2023-03-06T02:36:15.479Z,14.23
2023-03-06T02:38:49.963Z,10.40
2023-03-06T02:41:16.798Z,15.90
2023-03-06T02:43:45.170Z,15.80
2023-03-06T02:46:11.805Z,14.57
2023-03-06T02:48:38.296Z,18.65
2023-03-06T02:51:04.896Z,14.73
2023-03-06T02:53:31.273Z,16.67
2023-03-06T02:55:57.634Z,21.35
2023-03-06T02:58:23.995Z,13.75
2023-03-06T03:00:50.725Z,14.57
2023-03-06T03:03:17.714Z,15.13
2023-03-06T03:05:44.240Z,13.35
2023-03-06T03:08:10.685Z,20.10
2023-03-06T03:10:37.067Z,16.40
2023-03-06T03:13:03.474Z,18.02
2023-03-06T03:15:30.011Z,18.30
2023-03-06T03:17:56.430Z,20.20
2023-03-06T03:20:23.314Z,18.30
2023-03-06T03:22:55.045Z,20.10
2023-03-06T03:25:23.736Z,17.50
2023-03-06T03:27:50.309Z,12.60
2023-03-06T03:30:16.885Z,17.92
2023-03-06T03:32:43.695Z,16.05
2023-03-06T03:35:11.109Z,20.13
2023-03-06T03:37:38.019Z,19.20
2023-03-06T03:40:06.555Z,17.02
2023-03-06T03:42:33.099Z,15.25
2023-03-06T03:44:59.463Z,17.25
2023-03-06T03:47:25.902Z,17.20
2023-03-06T03:49:52.307Z,17.13
2023-03-06T03:52:18.898Z,16.00
2023-03-06T03:54:45.313Z,18.55
2023-03-06T03:57:11.726Z,15.38
2023-03-06T03:59:38.076Z,18.95
2023-03-06T04:02:04.931Z,18.10
2023-03-06T04:04:31.693Z,16.15
2023-03-06T04:06:58.097Z,17.92
2023-03-06T04:09:24.525Z,16.95
2023-03-06T04:11:50.995Z,16.35
2023-03-06T04:14:17.437Z,18.10
2023-03-06T04:16:43.829Z,17.50
2023-03-06T04:19:11.614Z,17.17
2023-03-06T04:21:38.052Z,14.82
2023-03-06T04:24:04.989Z,19.02
2023-03-06T04:26:31.374Z,18.40
2023-03-06T04:28:58.481Z,16.45
2023-03-06T04:31:24.942Z,16.80
2023-03-06T04:33:51.446Z,16.15
2023-03-06T04:36:36.564Z,17.08
2023-03-06T04:39:04.046Z,16.80
2023-03-06T04:41:30.680Z,16.75
2023-03-06T04:43:57.315Z,15.88
2023-03-06T04:46:23.673Z,19.40
2023-03-06T04:48:50.044Z,15.60
2023-03-06T04:51:16.518Z,18.10
2023-03-06T04:53:43.070Z,16.65
2023-03-06T04:56:09.722Z,15.10
2023-03-06T04:58:36.341Z,19.42
2023-03-06T05:01:03.241Z,16.80
2023-03-06T05:03:29.985Z,18.20
2023-03-06T05:05:56.543Z,17.08
2023-03-06T05:08:23.823Z,17.63
2023-03-06T05:10:56.102Z,22.88
2023-03-06T05:13:22.593Z,20.65
2023-03-06T05:15:48.982Z,16.52
2023-03-06T05:18:15.500Z,15.35
2023-03-06T05:20:41.864Z,19.77
2023-03-06T05:23:08.500Z,19.83
2023-03-06T05:25:34.880Z,16.60
2023-03-06T05:28:01.286Z,17.05
2023-03-06T05:30:27.638Z,16.58
2023-03-06T05:32:54.012Z,16.80
2023-03-06T05:35:23.016Z,17.95
2023-03-06T05:37:50.014Z,14.90
2023-03-06T05:40:17.480Z,15.55
2023-03-06T05:42:44.285Z,15.95
2023-03-06T05:45:11.477Z,23.42
2023-03-06T05:47:37.929Z,19.45
2023-03-06T05:50:05.440Z,16.20
2023-03-06T05:52:31.858Z,20.58
2023-03-06T05:54:58.330Z,18.98
2023-03-06T05:57:24.733Z,19.25
2023-03-06T05:59:51.238Z,17.13
2023-03-06T06:02:18.156Z,24.25
2023-03-06T06:04:44.638Z,15.00
2023-03-06T06:07:16.689Z,19.20
2023-03-06T06:09:45.503Z,19.70
2023-03-06T06:12:13.424Z,17.15
2023-03-06T06:14:39.933Z,23.25
2023-03-06T06:17:07.023Z,19.63
2023-03-06T06:19:33.393Z,15.57
2023-03-06T06:22:02.503Z,17.70
2023-03-06T06:24:28.845Z,17.60
2023-03-06T06:26:57.173Z,18.38
2023-03-06T06:29:23.976Z,16.95
2023-03-06T06:31:51.032Z,17.25
2023-03-06T06:34:18.361Z,20.13
2023-03-06T06:36:44.751Z,17.63
2023-03-06T06:39:15.668Z,17.70
2023-03-06T06:41:59.297Z,17.58
2023-03-06T06:44:29.027Z,16.75
2023-03-06T06:47:25.883Z,16.52
2023-03-06T06:49:41.737Z,18.42
2023-03-06T06:52:10.260Z,20.45
2023-03-06T06:54:37.386Z,15.68
2023-03-06T06:57:03.859Z,20.30
2023-03-06T06:59:30.227Z,13.57
2023-03-06T07:01:57.736Z,18.58
2023-03-06T07:04:24.069Z,13.18
2023-03-06T07:06:50.437Z,13.45
2023-03-06T07:09:16.954Z,14.60
2023-03-06T07:11:43.632Z,20.55
2023-03-06T07:14:10.201Z,15.43
2023-03-06T07:16:36.638Z,17.23
2023-03-06T07:19:03.135Z,15.65
2023-03-06T07:21:29.829Z,14.45
2023-03-06T07:23:57.444Z,12.57
2023-03-06T07:26:25.883Z,17.25
2023-03-06T07:28:53.599Z,13.32
2023-03-06T07:31:22.578Z,21.10
2023-03-06T07:33:50.440Z,17.35
2023-03-06T07:36:17.002Z,16.98
2023-03-06T07:38:43.472Z,14.82
2023-03-06T07:41:13.372Z,17.95
2023-03-06T07:43:44.085Z,20.42
2023-03-06T07:46:12.668Z,16.73
2023-03-06T07:48:39.701Z,16.10
2023-03-06T07:51:08.499Z,19.10
2023-03-06T07:53:35.622Z,15.38
2023-03-06T07:56:08.477Z,19.30
2023-03-06T07:58:36.386Z,17.35
2023-03-06T08:01:08.196Z,15.25
2023-03-06T08:03:35.061Z,14.80
2023-03-06T08:06:15.660Z,17.35
2023-03-06T08:08:44.306Z,16.45
2023-03-06T08:11:13.021Z,15.80
2023-03-06T08:13:40.140Z,18.90
2023-03-06T08:16:07.317Z,21.00
2023-03-06T08:18:34.351Z,17.92
2023-03-06T08:21:06.120Z,11.80
2023-03-06T08:23:33.278Z,14.82
2023-03-06T08:26:02.337Z,15.35
2023-03-06T08:28:28.877Z,17.15
2023-03-06T08:30:56.027Z,16.98
2023-03-06T08:33:23.339Z,14.98
2023-03-06T08:35:49.726Z,15.32
2023-03-06T08:38:16.247Z,17.60
2023-03-06T08:40:42.768Z,15.75
2023-03-06T08:43:12.987Z,18.50
2023-03-06T08:45:40.793Z,16.25
2023-03-06T08:48:08.368Z,23.67
2023-03-06T08:50:34.970Z,14.13
2023-03-06T08:53:01.506Z,15.50
2023-03-06T08:55:28.212Z,14.63
2023-03-06T08:57:54.894Z,19.13
2023-03-06T09:00:21.610Z,16.38
2023-03-06T09:02:48.101Z,18.13
2023-03-06T09:05:14.487Z,16.05
2023-03-06T09:07:40.842Z,15.65
2023-03-06T09:10:08.403Z,12.88
2023-03-06T09:12:47.378Z,16.98
2023-03-06T09:15:16.309Z,26.77
2023-03-06T09:17:43.050Z,17.20
2023-03-06T09:20:12.340Z,13.18
2023-03-06T09:22:39.061Z,18.80
2023-03-06T09:25:06.502Z,12.65
2023-03-06T09:27:32.963Z,15.65
2023-03-06T09:29:59.372Z,16.20
2023-03-06T09:32:25.812Z,18.67
2023-03-06T09:34:52.374Z,14.35
2023-03-06T09:37:19.279Z,16.95
2023-03-06T09:39:45.613Z,16.30
2023-03-06T09:42:21.598Z,18.25
2023-03-06T09:44:53.869Z,8.25
2023-03-06T09:47:27.347Z,14.10
2023-03-06T09:50:29.488Z,14.38
2023-03-06T09:53:32.933Z,12.13
2023-03-06T09:56:12.248Z,10.43
2023-03-06T09:58:45.225Z,11.10
2023-03-06T10:01:23.556Z,14.13
2023-03-06T10:04:11.377Z,12.57
2023-03-06T10:06:48.015Z,14.98
2023-03-06T10:09:23.084Z,10.30
2023-03-06T10:12:13.860Z,10.10
2023-03-06T10:14:46.658Z,10.18
2023-03-06T10:17:21.289Z,8.50
2023-03-06T10:19:47.853Z,6.82
2023-03-06T10:22:36.143Z,7.78
2023-03-06T10:25:22.159Z,9.50
2023-03-06T10:27:56.099Z,6.97
2023-03-06T10:30:40.725Z,6.28
2023-03-06T10:33:44.723Z,7.25
2023-03-06T10:36:16.011Z,6.20
2023-03-06T10:41:12.364Z,5.97
2023-03-06T10:44:05.801Z,5.53
2023-03-06T10:46:36.674Z,5.30
2023-03-06T10:49:24.861Z,6.95
2023-03-06T10:52:14.445Z,5.22
2023-03-06T10:54:44.116Z,5.75
2023-03-06T10:57:26.445Z,6.15
2023-03-06T11:00:14.117Z,5.82
2023-03-06T11:02:41.118Z,6.47
2023-03-06T11:05:19.831Z,10.80
2023-03-06T11:08:00.176Z,6.97
2023-03-06T11:10:27.857Z,5.90
2023-03-06T11:13:02.954Z,6.57
2023-03-06T11:15:30.324Z,6.40
2023-03-06T11:18:04.798Z,5.65
2023-03-06T11:20:50.871Z,8.05
2023-03-06T11:23:46.448Z,7.78
2023-03-06T11:26:15.808Z,6.13
2023-03-06T11:29:02.829Z,6.43
2023-03-06T11:31:37.617Z,7.80
2023-03-06T11:34:39.351Z,8.27
2023-03-06T11:37:21.802Z,5.57
2023-03-06T11:40:20.934Z,6.05
2023-03-06T11:43:20.868Z,5.57
2023-03-06T11:45:55.483Z,6.30
2023-03-06T11:48:28.562Z,7.03
2023-03-06T11:51:06.639Z,7.55
2023-03-06T11:53:36.894Z,7.53
2023-03-06T11:56:22.689Z,6.97
2023-03-06T11:59:20.383Z,9.48
2023-03-06T12:02:02.125Z,8.23
2023-03-06T12:04:37.700Z,8.13
2023-03-06T12:07:31.134Z,10.32
2023-03-06T12:10:16.358Z,6.80
2023-03-06T12:13:06.951Z,9.02
2023-03-06T12:15:36.230Z,7.50
2023-03-06T12:18:19.431Z,6.55
2023-03-06T12:21:00.088Z,8.25
2023-03-06T12:24:11.202Z,7.43
2023-03-06T12:26:53.474Z,7.30
2023-03-06T12:29:44.170Z,5.00
2023-03-06T12:32:21.008Z,6.10
2023-03-06T12:35:05.984Z,6.68
2023-03-06T12:37:55.943Z,6.07
2023-03-06T12:40:59.621Z,5.85
2023-03-06T12:43:44.407Z,7.13
2023-03-06T12:46:16.446Z,5.78
2023-03-06T12:48:48.289Z,5.97
2023-03-06T12:51:18.184Z,6.45
2023-03-06T12:53:45.301Z,7.18
2023-03-06T12:56:15.924Z,6.03
2023-03-06T12:58:49.393Z,6.65
2023-03-06T13:01:27.746Z,6.00
2023-03-06T13:04:31.868Z,7.20
2023-03-06T13:07:06.944Z,6.85
2023-03-06T13:09:58.548Z,8.68
2023-03-06T13:12:38.595Z,7.15
2023-03-06T13:15:34.870Z,7.88
2023-03-06T13:18:02.598Z,7.05
2023-03-06T13:20:45.117Z,8.27
2023-03-06T13:23:30.123Z,8.32
2023-03-06T13:25:59.634Z,8.10
2023-03-06T13:28:26.099Z,8.50
2023-03-06T13:30:53.366Z,7.57
2023-03-06T13:33:22.577Z,7.43
2023-03-06T13:35:53.435Z,6.07
2023-03-06T13:38:33.903Z,8.10
2023-03-06T13:41:22.246Z,8.32
2023-03-06T13:46:26.779Z,6.75
2023-03-06T13:49:08.425Z,6.00
2023-03-06T13:51:49.407Z,4.28
2023-03-06T13:54:27.801Z,4.60
2023-03-06T13:57:16.034Z,4.45
2023-03-06T14:00:36.965Z,7.18
2023-03-06T14:03:19.545Z,5.15
2023-03-06T14:05:50.701Z,6.70
2023-03-06T14:08:27.558Z,6.13
2023-03-06T14:11:18.967Z,4.68
2023-03-06T14:13:50.521Z,5.68
2023-03-06T14:16:26.930Z,3.97
2023-03-06T14:18:55.828Z,6.55
2023-03-06T14:21:30.768Z,4.90
2023-03-06T14:24:02.350Z,7.25
2023-03-06T14:26:32.756Z,7.78
2023-03-06T14:29:00.738Z,5.32
2023-03-06T14:31:42.725Z,5.20
2023-03-06T14:34:20.056Z,6.85
2023-03-06T14:36:50.266Z,6.55
2023-03-06T14:39:36.118Z,5.70
2023-03-06T14:42:23.867Z,6.15
2023-03-06T14:45:16.939Z,5.20
2023-03-06T14:47:43.479Z,6.18
2023-03-06T14:50:28.027Z,12.63
2023-03-06T14:53:10.519Z,9.18
2023-03-06T14:55:37.517Z,6.70
2023-03-06T14:58:10.953Z,7.35
2023-03-06T15:00:43.475Z,5.93
2023-03-06T15:03:19.660Z,8.45
2023-03-06T15:05:47.376Z,15.52
2023-03-06T15:08:19.345Z,5.75
2023-03-06T15:11:00.726Z,6.95
2023-03-06T15:13:30.043Z,7.43
2023-03-06T15:16:13.595Z,12.27
2023-03-06T15:18:53.995Z,10.07
2023-03-06T15:21:26.325Z,12.45
2023-03-06T15:23:55.078Z,11.48
2023-03-06T15:26:36.894Z,12.82
2023-03-06T15:29:10.333Z,5.88
2023-03-06T15:31:39.325Z,5.85
2023-03-06T15:34:11.536Z,8.02
2023-03-06T15:36:48.425Z,6.82
2023-03-06T15:39:33.261Z,10.48
2023-03-06T15:42:21.113Z,7.55
2023-03-06T15:45:03.136Z,8.93
2023-03-06T15:47:29.571Z,8.73
2023-03-06T15:49:56.887Z,9.68
2023-03-06T15:52:23.714Z,10.45
2023-03-06T15:54:50.281Z,6.28
2023-03-06T15:57:26.043Z,7.55
2023-03-06T15:59:53.458Z,7.38
2023-03-06T16:02:22.080Z,8.18
2023-03-06T16:04:48.615Z,10.02
2023-03-06T16:07:15.550Z,6.53
2023-03-06T16:09:42.899Z,8.95
2023-03-06T16:12:15.316Z,6.63
2023-03-06T16:14:41.844Z,6.38
2023-03-06T16:17:13.402Z,9.70
2023-03-06T16:19:40.420Z,7.32
2023-03-06T16:22:06.798Z,7.20
2023-03-06T16:24:33.168Z,7.78
2023-03-06T16:27:01.738Z,7.85
2023-03-06T16:29:29.282Z,8.82
2023-03-06T16:32:01.603Z,7.28
2023-03-06T16:34:28.036Z,8.02
2023-03-06T16:36:54.539Z,7.38
2023-03-06T16:39:23.509Z,7.60
2023-03-06T16:41:50.253Z,7.57
2023-03-06T16:44:16.607Z,8.65
2023-03-06T16:46:47.933Z,7.45
2023-03-06T16:51:45.377Z,7.97
2023-03-06T16:54:12.606Z,7.85
2023-03-06T16:56:39.039Z,9.60
2023-03-06T16:59:05.480Z,13.50
2023-03-06T17:01:32.150Z,9.73
2023-03-06T17:03:58.729Z,9.02
2023-03-06T17:06:25.108Z,9.48
2023-03-06T17:08:51.650Z,6.72
2023-03-06T17:11:20.227Z,10.20
2023-03-06T17:13:47.921Z,7.95
2023-03-06T17:16:18.488Z,9.05
2023-03-06T17:18:46.131Z,9.65
2023-03-06T17:21:17.456Z,7.57
2023-03-06T17:23:44.500Z,8.50
2023-03-06T17:26:18.721Z,7.85
2023-03-06T17:28:45.804Z,7.20
2023-03-06T17:31:23.131Z,8.02
2023-03-06T17:33:51.368Z,7.63
2023-03-06T17:36:19.172Z,8.55
2023-03-06T17:38:45.834Z,9.07
2023-03-06T17:41:13.112Z,5.75
2023-03-06T17:43:40.183Z,8.13
2023-03-06T17:46:12.083Z,7.40
2023-03-06T17:48:39.483Z,9.32
2023-03-06T17:51:07.412Z,9.80
2023-03-06T17:53:33.902Z,14.15
2023-03-06T17:56:03.648Z,10.73
2023-03-06T17:58:30.106Z,11.23
2023-03-06T18:00:56.465Z,11.95
2023-03-06T18:03:22.899Z,14.32
2023-03-06T18:06:03.684Z,8.68
2023-03-06T18:08:30.990Z,13.70
2023-03-06T18:11:05.263Z,12.82
2023-03-06T18:13:33.576Z,11.15
2023-03-06T18:16:00.692Z,10.55
2023-03-06T18:18:27.652Z,9.48
2023-03-06T18:20:54.147Z,10.35
2023-03-06T18:23:20.632Z,8.75
2023-03-06T18:25:47.377Z,13.52
2023-03-06T18:28:13.784Z,12.02
2023-03-06T18:30:42.254Z,12.65
2023-03-06T18:33:10.140Z,11.48
2023-03-06T18:35:37.428Z,8.73
2023-03-06T18:38:03.885Z,9.70
2023-03-06T18:40:30.482Z,11.20
2023-03-06T18:42:56.889Z,11.35
2023-03-06T18:45:23.313Z,8.50
2023-03-06T18:47:49.734Z,10.48
2023-03-06T18:50:17.513Z,9.30
2023-03-06T18:52:44.281Z,12.20
2023-03-06T18:55:11.006Z,11.20
2023-03-06T18:57:37.535Z,10.13
2023-03-06T19:00:04.707Z,8.90
2023-03-06T19:02:31.430Z,8.90
2023-03-06T19:04:57.898Z,7.45
2023-03-06T19:07:24.752Z,10.60
2023-03-06T19:09:51.336Z,10.15
2023-03-06T19:12:17.855Z,9.75
2023-03-06T19:14:44.612Z,9.40
2023-03-06T19:17:11.092Z,10.98
2023-03-06T19:19:38.874Z,10.02
2023-03-06T19:22:05.274Z,11.50
2023-03-06T19:24:31.619Z,9.70
2023-03-06T19:26:57.985Z,14.32
2023-03-06T19:29:24.497Z,11.98
2023-03-06T19:31:52.058Z,12.63
2023-03-06T19:34:18.654Z,12.70
2023-03-06T19:36:45.062Z,11.07
2023-03-06T19:39:11.472Z,11.07
2023-03-06T19:41:37.874Z,11.07
2023-03-06T19:44:05.764Z,8.15
2023-03-06T19:46:34.056Z,10.18
2023-03-06T19:49:02.609Z,12.38
2023-03-06T19:51:29.539Z,9.90
2023-03-06T19:53:57.304Z,12.07
2023-03-06T19:56:27.262Z,12.93
2023-03-06T19:58:53.644Z,13.30
2023-03-06T20:01:22.227Z,15.07
2023-03-06T20:03:50.589Z,12.18
2023-03-06T20:06:19.539Z,11.57
2023-03-06T20:08:47.139Z,14.38
2023-03-06T20:11:17.933Z,11.70
2023-03-06T20:13:47.428Z,12.45
2023-03-06T20:16:15.073Z,13.68
2023-03-06T20:18:42.101Z,14.98
2023-03-06T20:21:08.802Z,10.32
2023-03-06T20:23:35.504Z,9.52
2023-03-06T20:26:09.301Z,12.00
2023-03-06T20:28:36.596Z,13.18
2023-03-06T20:31:08.529Z,10.82
2023-03-06T20:33:35.209Z,10.77
2023-03-06T20:36:01.838Z,10.43
2023-03-06T20:38:28.741Z,11.68
2023-03-06T20:40:56.091Z,12.68
2023-03-06T20:43:23.361Z,13.20
2023-03-06T20:46:00.973Z,12.18
2023-03-06T20:48:27.561Z,10.57
2023-03-06T20:51:06.314Z,9.20
2023-03-06T20:53:35.039Z,15.60
2023-03-06T20:56:01.408Z,11.40
2023-03-06T20:58:30.071Z,10.82
2023-03-06T21:00:57.669Z,12.27
2023-03-06T21:03:24.867Z,12.38
2023-03-06T21:05:51.352Z,12.18
2023-03-06T21:08:17.798Z,10.05
2023-03-06T21:10:45.481Z,12.10
2023-03-06T21:13:13.866Z,11.73
2023-03-06T21:15:41.547Z,16.00
2023-03-06T21:18:09.289Z,10.10
2023-03-06T21:20:39.303Z,11.50
2023-03-06T21:23:06.087Z,12.93
2023-03-06T21:25:32.484Z,10.57
2023-03-06T21:28:00.098Z,9.75
2023-03-06T21:30:28.446Z,10.60
2023-03-06T21:32:55.402Z,11.98
2023-03-06T21:35:21.835Z,9.40
2023-03-06T21:37:48.363Z,8.98
2023-03-06T21:40:14.822Z,9.73
2023-03-06T21:42:41.583Z,11.93
2023-03-06T21:45:08.475Z,10.73
2023-03-06T21:47:38.890Z,10.25
2023-03-06T21:50:07.218Z,9.32
2023-03-06T21:52:33.743Z,14.18
2023-03-06T21:55:00.501Z,11.98
2023-03-06T21:57:27.073Z,12.50
2023-03-06T21:59:53.452Z,9.25
2023-03-06T22:02:21.734Z,15.27
2023-03-06T22:04:52.739Z,10.23
2023-03-06T22:07:20.199Z,9.75
2023-03-06T22:09:52.272Z,10.77
2023-03-06T22:12:18.707Z,12.00
2023-03-06T22:14:45.132Z,11.32
2023-03-06T22:17:11.560Z,11.65
2023-03-06T22:19:38.005Z,11.88
2023-03-06T22:22:04.835Z,11.40
2023-03-06T22:24:31.924Z,11.65
2023-03-06T22:26:58.486Z,12.63
2023-03-06T22:29:26.078Z,11.40
2023-03-06T22:31:52.955Z,12.15
2023-03-06T22:34:19.512Z,10.50
2023-03-06T22:36:45.974Z,11.65
2023-03-06T22:39:13.406Z,11.90
2023-03-06T22:41:40.261Z,12.13
2023-03-06T22:44:06.684Z,17.75
2023-03-06T22:46:33.251Z,15.60
2023-03-06T22:49:00.582Z,15.48
2023-03-06T22:51:28.120Z,12.23
2023-03-06T22:53:54.562Z,16.48
2023-03-06T22:56:21.837Z,14.75
2023-03-06T22:58:48.592Z,12.32
2023-03-06T23:01:24.981Z,18.98
2023-03-06T23:04:00.578Z,15.00
2023-03-06T23:06:30.852Z,14.15
2023-03-06T23:09:05.705Z,9.23
2023-03-06T23:11:32.741Z,13.98
2023-03-06T23:13:59.214Z,10.65
2023-03-06T23:16:26.093Z,8.88
2023-03-06T23:18:53.286Z,12.85
2023-03-06T23:21:22.626Z,11.57
2023-03-06T23:23:51.581Z,13.73
2023-03-06T23:26:20.314Z,12.38
2023-03-06T23:28:47.782Z,13.57
2023-03-06T23:31:17.422Z,13.13
2023-03-06T23:33:43.967Z,11.10
2023-03-06T23:36:13.411Z,14.75
2023-03-06T23:38:40.549Z,12.15
2023-03-06T23:41:18.257Z,9.05
2023-03-06T23:43:46.508Z,13.35
2023-03-06T23:46:13.236Z,12.15
2023-03-06T23:48:41.103Z,11.18
2023-03-06T23:51:19.788Z,10.45
2023-03-06T23:53:47.302Z,9.48
2023-03-06T23:56:14.111Z,13.02
2023-03-06T23:58:40.859Z,13.45
